Time;durP1;ratioP1;P1;durP2;ratioP2;P2;SDS_P1;SDS_P2;PMS_P1;PMS_P2;Temp;Humidity;BMP_temperature;BMP_pressure;BME280_temperature;BME280_humidity;BME280_pressure;Samples;Min_cycle;Max_cycle;Signal;HPM_P1;HPM_P2
2022/07/19 00:00:24;;;;;;;5.30;2.75;;;22.90;69.40;;;;;;1918175;73;20989;-59
2022/07/19 00:02:54;;;;;;;5.78;2.83;;;22.90;69.20;;;;;;1918203;73;21038;-59
2022/07/19 00:05:23;;;;;;;6.35;3.25;;;22.80;69.60;;;;;;1918193;75;21010;-59
2022/07/19 00:07:52;;;;;;;4.42;2.90;;;22.90;69.40;;;;;;1918166;75;21002;-59
2022/07/19 00:10:21;;;;;;;5.40;2.95;;;22.90;69.30;;;;;;1918153;75;21479;-59
2022/07/19 00:12:50;;;;;;;3.58;3.27;;;22.90;69.60;;;;;;1918269;75;21013;-59
2022/07/19 00:15:19;;;;;;;6.50;3.12;;;22.90;69.80;;;;;;1918162;75;21111;-59
2022/07/19 00:17:49;;;;;;;4.62;2.40;;;23.00;69.90;;;;;;1918184;75;20978;-59
2022/07/19 00:20:21;;;;;;;5.70;2.65;;;23.00;70.00;;;;;;1918111;75;21131;-59
2022/07/19 00:22:50;;;;;;;5.10;2.70;;;22.90;70.30;;;;;;1918147;75;21409;-59
2022/07/19 00:25:19;;;;;;;3.98;2.65;;;23.00;70.30;;;;;;1918221;75;20990;-59
2022/07/19 00:27:48;;;;;;;6.95;3.30;;;22.90;70.30;;;;;;1918149;75;21053;-59
2022/07/19 00:30:17;;;;;;;6.58;3.72;;;22.90;69.80;;;;;;1918196;75;21542;-59
2022/07/19 00:32:46;;;;;;;5.62;3.05;;;22.90;69.90;;;;;;1918159;75;21487;-59
2022/07/19 00:35:14;;;;;;;4.33;2.95;;;22.80;70.20;;;;;;1918081;75;20994;-59
2022/07/19 00:37:43;;;;;;;5.40;2.83;;;22.80;70.30;;;;;;1918202;75;20995;-59
2022/07/19 00:40:13;;;;;;;4.58;3.10;;;22.80;70.10;;;;;;1918238;75;21514;-59
2022/07/19 00:42:42;;;;;;;3.95;3.22;;;22.80;70.40;;;;;;1918151;75;21512;-59
2022/07/19 00:45:11;;;;;;;8.73;3.25;;;22.80;70.70;;;;;;1918126;75;21049;-59
2022/07/19 00:47:40;;;;;;;9.65;3.27;;;22.80;70.70;;;;;;1918120;75;21088;-59
2022/07/19 00:50:10;;;;;;;5.75;3.12;;;22.80;70.70;;;;;;1918185;75;21432;-59
2022/07/19 00:52:40;;;;;;;6.58;3.17;;;22.80;70.90;;;;;;1918125;74;20998;-59
2022/07/19 00:55:10;;;;;;;7.22;3.92;;;22.80;70.80;;;;;;1918135;75;21503;-59
2022/07/19 00:57:39;;;;;;;8.53;3.67;;;22.80;70.80;;;;;;1918151;75;21006;-59
2022/07/19 01:00:10;;;;;;;7.03;4.08;;;22.80;71.00;;;;;;1918093;75;21484;-59
2022/07/19 01:02:40;;;;;;;9.58;3.83;;;22.80;70.80;;;;;;1918255;75;21029;-59
2022/07/19 01:05:09;;;;;;;6.60;3.92;;;22.80;70.70;;;;;;1918094;73;20993;-59
2022/07/19 01:07:41;;;;;;;7.97;3.85;;;22.80;70.50;;;;;;1918174;75;20989;-59
2022/07/19 01:10:12;;;;;;;8.70;4.08;;;22.70;70.30;;;;;;1918212;73;21036;-59
2022/07/19 01:12:42;;;;;;;6.80;3.83;;;22.70;70.50;;;;;;1918148;74;20984;-59
2022/07/19 01:15:20;;;;;;;11.45;4.83;;;22.60;70.60;;;;;;1918168;75;20989;-59
2022/07/19 01:17:49;;;;;;;8.90;4.62;;;22.60;70.40;;;;;;1918018;74;21020;-59
2022/07/19 01:20:20;;;;;;;7.25;4.33;;;22.50;70.10;;;;;;1918224;75;21017;-59
2022/07/19 01:22:49;;;;;;;9.13;4.40;;;22.50;70.10;;;;;;1918123;73;20983;-59
2022/07/19 01:25:18;;;;;;;7.75;4.30;;;22.40;69.90;;;;;;1918075;75;20993;-59
2022/07/19 01:27:51;;;;;;;6.42;4.17;;;22.30;70.00;;;;;;1918171;75;21451;-59
2022/07/19 01:30:22;;;;;;;11.45;4.80;;;22.30;70.50;;;;;;1918184;73;20993;-59
2022/07/19 01:32:52;;;;;;;7.05;4.17;;;22.20;70.50;;;;;;1918158;75;21420;-59
2022/07/19 01:35:21;;;;;;;9.10;4.62;;;22.10;70.80;;;;;;1918077;75;21062;-59
2022/07/19 01:37:51;;;;;;;8.05;4.67;;;22.10;71.30;;;;;;1918115;73;20989;-59
2022/07/19 01:40:20;;;;;;;6.50;4.40;;;22.10;71.40;;;;;;1918069;75;20962;-59
2022/07/19 01:42:50;;;;;;;8.10;4.78;;;22.10;71.50;;;;;;1918077;74;21071;-59
2022/07/19 01:45:20;;;;;;;9.78;4.58;;;22.10;71.40;;;;;;1918229;75;20985;-59
2022/07/19 01:47:49;;;;;;;7.72;4.10;;;22.10;71.40;;;;;;1918109;73;21055;-59
2022/07/19 01:50:19;;;;;;;10.00;5.05;;;22.10;71.60;;;;;;1918124;75;21435;-58
2022/07/19 01:52:48;;;;;;;13.15;5.65;;;22.10;71.40;;;;;;1918181;75;21021;-59
2022/07/19 01:55:18;;;;;;;9.98;4.90;;;22.00;71.60;;;;;;1918083;75;21517;-59
2022/07/19 01:57:47;;;;;;;11.35;4.45;;;22.00;71.70;;;;;;1918107;75;20993;-59
2022/07/19 02:00:16;;;;;;;8.28;4.20;;;22.00;71.60;;;;;;1918113;73;21490;-59
2022/07/19 02:02:45;;;;;;;6.47;3.33;;;21.90;70.80;;;;;;1918078;74;21104;-59
2022/07/19 02:05:14;;;;;;;7.37;4.00;;;21.90;70.50;;;;;;1918171;75;21059;-59
2022/07/19 02:07:43;;;;;;;4.67;3.08;;;21.80;70.30;;;;;;1918249;75;21052;-59
2022/07/19 02:10:12;;;;;;;10.53;2.70;;;21.80;70.60;;;;;;1918131;75;21049;-59
2022/07/19 02:12:41;;;;;;;5.50;2.85;;;21.80;70.50;;;;;;1918140;75;21429;-59
2022/07/19 02:15:10;;;;;;;4.37;2.40;;;21.80;70.90;;;;;;1918018;75;21052;-59
2022/07/19 02:17:39;;;;;;;4.25;3.02;;;21.80;71.00;;;;;;1918138;75;20970;-59
2022/07/19 02:20:09;;;;;;;3.40;2.27;;;21.90;71.20;;;;;;1918106;75;21107;-59
2022/07/19 02:22:38;;;;;;;4.90;2.85;;;21.90;71.20;;;;;;1918072;75;20990;-59
2022/07/19 02:25:08;;;;;;;5.30;2.67;;;21.90;70.70;;;;;;1918098;75;21038;-59
2022/07/19 02:27:37;;;;;;;5.25;3.00;;;21.90;70.00;;;;;;1918101;75;21002;-59
2022/07/19 02:30:06;;;;;;;3.60;2.92;;;21.90;69.10;;;;;;1918250;75;21006;-59
2022/07/19 02:32:35;;;;;;;3.33;2.55;;;21.90;68.30;;;;;;1918201;75;21049;-59
2022/07/19 02:35:07;;;;;;;3.35;2.27;;;21.70;67.80;;;;;;1918145;75;21002;-59
2022/07/19 02:37:36;;;;;;;7.85;2.98;;;21.60;68.00;;;;;;1918136;75;20978;-59
2022/07/19 02:40:05;;;;;;;3.67;2.50;;;21.50;68.20;;;;;;1918053;75;21135;-59
2022/07/19 02:42:34;;;;;;;4.28;2.17;;;21.50;68.10;;;;;;1918085;75;20990;-59
2022/07/19 02:45:04;;;;;;;2.52;2.33;;;21.40;68.60;;;;;;1918125;75;21487;-59
2022/07/19 02:47:33;;;;;;;3.05;2.02;;;21.40;68.60;;;;;;1918128;75;20986;-59
2022/07/19 02:50:02;;;;;;;7.08;2.37;;;21.40;68.40;;;;;;1918043;75;21045;-59
2022/07/19 02:52:31;;;;;;;3.55;2.37;;;21.40;68.60;;;;;;1918039;75;21006;-59
2022/07/19 02:55:00;;;;;;;6.78;2.83;;;21.40;68.00;;;;;;1917989;75;21049;-59
2022/07/19 02:57:29;;;;;;;7.00;2.40;;;21.40;67.90;;;;;;1918136;75;21030;-59
2022/07/19 02:59:58;;;;;;;6.62;2.65;;;21.50;68.00;;;;;;1918135;75;21479;-59
2022/07/19 03:02:27;;;;;;;2.77;2.08;;;21.50;67.90;;;;;;1918026;75;21060;-59
2022/07/19 03:04:56;;;;;;;4.03;2.45;;;21.50;67.90;;;;;;1913952;75;21039;-59
2022/07/19 03:07:25;;;;;;;7.03;1.95;;;21.50;68.30;;;;;;1913876;75;21056;-59
2022/07/19 03:09:53;;;;;;;3.70;2.72;;;21.50;68.30;;;;;;1913905;75;20959;-59
2022/07/19 03:12:22;;;;;;;3.55;2.60;;;21.50;68.90;;;;;;1913887;75;21045;-59
2022/07/19 03:14:51;;;;;;;3.08;2.05;;;21.60;69.40;;;;;;1913977;75;21006;-59
2022/07/19 03:17:20;;;;;;;4.58;2.62;;;21.60;69.60;;;;;;1913913;75;20955;-58
2022/07/19 03:19:49;;;;;;;3.47;2.30;;;21.70;69.50;;;;;;1913860;75;21465;-59
2022/07/19 03:22:18;;;;;;;2.50;2.25;;;21.80;69.50;;;;;;1913913;75;20983;-59
2022/07/19 03:24:47;;;;;;;2.87;2.20;;;21.80;69.40;;;;;;1913985;75;20998;-59
2022/07/19 03:27:16;;;;;;;3.55;2.50;;;21.90;68.90;;;;;;1913893;75;21539;-59
2022/07/19 03:29:45;;;;;;;5.75;2.60;;;21.90;68.80;;;;;;1913844;75;21003;-59
2022/07/19 03:32:14;;;;;;;3.45;2.42;;;22.00;69.00;;;;;;1913961;75;21015;-59
2022/07/19 03:34:43;;;;;;;9.28;3.27;;;22.10;69.00;;;;;;1914022;75;21048;-59
2022/07/19 03:37:12;;;;;;;4.75;3.30;;;22.20;68.60;;;;;;1913814;75;20992;-59
2022/07/19 03:39:41;;;;;;;4.30;2.75;;;22.40;68.40;;;;;;1913852;75;20998;-60
2022/07/19 03:42:10;;;;;;;5.50;2.70;;;22.50;67.60;;;;;;1913839;75;21018;-59
2022/07/19 03:44:39;;;;;;;3.72;2.55;;;22.60;66.30;;;;;;1913913;75;21466;-59
2022/07/19 03:47:08;;;;;;;3.62;2.50;;;22.50;66.20;;;;;;1913815;75;21147;-59
2022/07/19 03:49:37;;;;;;;4.80;2.72;;;22.50;66.00;;;;;;1913897;75;21008;-59
2022/07/19 03:52:06;;;;;;;4.95;3.02;;;22.50;66.10;;;;;;1913908;75;21010;-59
2022/07/19 03:54:35;;;;;;;7.60;2.98;;;22.50;66.20;;;;;;1913889;75;21494;-59
2022/07/19 03:57:04;;;;;;;4.62;2.58;;;22.60;65.60;;;;;;1913993;75;21062;-59
2022/07/19 03:59:33;;;;;;;2.70;2.27;;;22.60;66.10;;;;;;1913944;75;20963;-59
2022/07/19 04:02:02;;;;;;;4.28;2.70;;;22.60;66.50;;;;;;1913914;75;21022;-59
2022/07/19 04:04:31;;;;;;;3.30;2.52;;;22.70;65.20;;;;;;1916335;74;21107;-59
2022/07/19 04:07:00;;;;;;;4.85;2.75;;;22.70;65.00;;;;;;1918122;74;20997;-59
2022/07/19 04:09:29;;;;;;;3.90;2.40;;;22.60;64.10;;;;;;1918109;74;21071;-59
2022/07/19 04:11:58;;;;;;;7.03;2.40;;;22.60;64.80;;;;;;1918167;74;21459;-59
2022/07/19 04:14:26;;;;;;;4.12;2.50;;;22.60;64.70;;;;;;1918072;75;20965;-59
2022/07/19 04:16:55;;;;;;;5.33;3.00;;;22.60;64.70;;;;;;1918161;75;20997;-59
2022/07/19 04:19:24;;;;;;;4.65;2.90;;;22.70;64.80;;;;;;1918212;74;21463;-59
2022/07/19 04:21:53;;;;;;;5.20;3.12;;;22.80;64.70;;;;;;1918127;74;20998;-59
2022/07/19 04:24:22;;;;;;;5.28;3.00;;;22.90;64.40;;;;;;1918089;75;21005;-59
2022/07/19 04:26:51;;;;;;;4.03;2.87;;;23.00;63.70;;;;;;1918106;75;21489;-59
2022/07/19 04:29:20;;;;;;;5.62;2.70;;;23.10;63.60;;;;;;1918157;75;20965;-59
2022/07/19 04:31:49;;;;;;;5.12;2.95;;;23.10;63.60;;;;;;1918063;73;20997;-59
2022/07/19 04:34:18;;;;;;;6.00;2.80;;;23.20;62.30;;;;;;1918127;75;21009;-60
2022/07/19 04:36:47;;;;;;;6.42;2.62;;;23.30;62.00;;;;;;1918064;75;20993;-60
2022/07/19 04:39:16;;;;;;;3.45;2.70;;;23.30;62.00;;;;;;1918175;75;21442;-60
2022/07/19 04:41:45;;;;;;;5.35;2.72;;;23.40;62.10;;;;;;1918132;74;21482;-60
2022/07/19 04:44:14;;;;;;;9.03;2.90;;;23.50;61.50;;;;;;1918140;73;21122;-60
2022/07/19 04:46:43;;;;;;;4.62;2.62;;;23.50;61.10;;;;;;1918019;74;20953;-60
2022/07/19 04:49:12;;;;;;;5.30;2.50;;;23.60;60.30;;;;;;1918034;73;21443;-60
2022/07/19 04:51:41;;;;;;;3.62;2.20;;;23.50;59.80;;;;;;1918047;73;21001;-60
2022/07/19 04:54:09;;;;;;;5.53;2.67;;;23.60;59.50;;;;;;1918067;74;20997;-60
2022/07/19 04:56:38;;;;;;;4.35;2.83;;;23.60;59.70;;;;;;1918083;75;21408;-60
2022/07/19 04:59:07;;;;;;;8.55;4.45;;;23.70;59.00;;;;;;1918307;75;21048;-60
2022/07/19 05:01:36;;;;;;;4.83;2.47;;;23.70;58.60;;;;;;1918091;73;20965;-60
2022/07/19 05:04:05;;;;;;;11.53;4.55;;;23.70;57.90;;;;;;1917945;73;21005;-60
2022/07/19 05:06:34;;;;;;;6.33;3.25;;;23.70;58.10;;;;;;1918005;75;21432;-60
2022/07/19 05:09:04;;;;;;;3.85;2.87;;;23.80;58.20;;;;;;1918105;73;21083;-60
2022/07/19 05:11:33;;;;;;;4.85;3.12;;;23.90;57.00;;;;;;1918204;73;20981;-60
2022/07/19 05:14:02;;;;;;;3.42;2.47;;;23.90;56.90;;;;;;1918098;74;21474;-59
2022/07/19 05:16:31;;;;;;;4.80;2.70;;;23.90;57.10;;;;;;1918036;74;20957;-60
2022/07/19 05:19:00;;;;;;;4.37;2.40;;;23.90;56.60;;;;;;1918095;74;21056;-60
2022/07/19 05:21:29;;;;;;;3.75;2.72;;;24.00;56.90;;;;;;1918122;75;21529;-60
2022/07/19 05:23:58;;;;;;;6.03;2.22;;;24.10;56.60;;;;;;1918082;75;20965;-60
2022/07/19 05:26:26;;;;;;;3.90;2.30;;;24.10;56.00;;;;;;1917969;75;20993;-60
2022/07/19 05:28:58;;;;;;;4.47;2.60;;;24.20;56.20;;;;;;1918024;73;21448;-60
2022/07/19 05:31:27;;;;;;;5.47;3.05;;;24.30;55.80;;;;;;1918142;74;21059;-60
2022/07/19 05:33:56;;;;;;;4.75;2.50;;;24.50;55.60;;;;;;1918076;74;21368;-60
2022/07/19 05:36:25;;;;;;;4.03;2.33;;;24.60;54.30;;;;;;1918019;75;21001;-60
2022/07/19 05:38:55;;;;;;;6.70;2.85;;;24.60;54.30;;;;;;1918165;73;21025;-60
2022/07/19 05:41:24;;;;;;;4.92;2.60;;;24.70;54.30;;;;;;1917994;75;21008;-60
2022/07/19 05:43:53;;;;;;;5.47;2.47;;;24.70;53.30;;;;;;1918000;75;21059;-60
2022/07/19 05:46:22;;;;;;;6.00;3.12;;;24.70;53.00;;;;;;1917881;75;21063;-60
2022/07/19 05:48:51;;;;;;;6.65;3.02;;;24.60;52.80;;;;;;1918115;73;20981;-60
2022/07/19 05:51:20;;;;;;;6.17;3.22;;;24.60;53.00;;;;;;1917914;73;20958;-60
2022/07/19 05:53:49;;;;;;;14.38;8.08;;;24.50;53.20;;;;;;1917994;74;21137;-60
2022/07/19 05:56:18;;;;;;;8.98;3.60;;;24.60;53.30;;;;;;1917900;75;20996;-60
2022/07/19 05:58:47;;;;;;;4.65;3.08;;;24.80;53.00;;;;;;1918097;75;20997;-60
2022/07/19 06:01:19;;;;;;;9.25;2.83;;;24.80;51.20;;;;;;1918176;73;21477;-60
2022/07/19 06:03:52;;;;;;;7.12;3.20;;;24.70;51.20;;;;;;1918197;73;21061;-60
2022/07/19 06:06:22;;;;;;;4.72;2.85;;;24.60;51.70;;;;;;1918202;73;21034;-60
2022/07/19 06:08:51;;;;;;;6.40;2.75;;;24.50;52.10;;;;;;1918048;75;20991;-60
2022/07/19 06:11:22;;;;;;;6.28;2.60;;;24.30;52.10;;;;;;1917969;75;21030;-60
2022/07/19 06:13:52;;;;;;;5.30;2.72;;;24.20;52.60;;;;;;1918080;75;21081;-60
2022/07/19 06:16:21;;;;;;;6.12;2.40;;;24.20;52.70;;;;;;1917984;75;21007;-60
2022/07/19 06:18:50;;;;;;;11.57;3.58;;;24.30;53.10;;;;;;1918042;75;21499;-60
2022/07/19 06:21:21;;;;;;;3.42;2.50;;;24.40;52.90;;;;;;1918028;75;21006;-60
2022/07/19 06:23:50;;;;;;;4.87;2.95;;;24.50;53.20;;;;;;1918207;75;20990;-60
2022/07/19 06:26:19;;;;;;;7.45;3.02;;;24.70;52.60;;;;;;1918053;75;21057;-60
2022/07/19 06:28:48;;;;;;;5.87;3.02;;;24.90;52.40;;;;;;1917963;75;21507;-60
2022/07/19 06:31:17;;;;;;;11.28;5.53;;;25.00;52.20;;;;;;1917931;75;21056;-60
2022/07/19 06:33:48;;;;;;;3.92;2.67;;;25.20;51.70;;;;;;1917934;75;21127;-60
2022/07/19 06:36:19;;;;;;;4.37;2.55;;;25.20;51.30;;;;;;1917980;75;21060;-60
2022/07/19 06:38:49;;;;;;;5.70;3.35;;;25.30;51.60;;;;;;1918036;75;21441;-60
2022/07/19 06:41:18;;;;;;;6.45;2.80;;;25.30;51.10;;;;;;1917995;75;21010;-60
2022/07/19 06:43:47;;;;;;;6.70;2.37;;;25.40;51.10;;;;;;1917940;74;21038;-60
2022/07/19 06:46:16;;;;;;;2.72;1.95;;;25.50;50.00;;;;;;1917904;75;20986;-60
2022/07/19 06:48:45;;;;;;;5.37;2.45;;;25.50;49.10;;;;;;1918079;75;21010;-60
2022/07/19 06:51:14;;;;;;;7.70;2.20;;;25.50;49.20;;;;;;1918014;75;21010;-60
2022/07/19 06:53:43;;;;;;;4.60;2.58;;;25.50;49.50;;;;;;1917989;75;21010;-60
2022/07/19 06:56:11;;;;;;;4.60;2.42;;;25.50;49.00;;;;;;1918016;75;20967;-60
2022/07/19 06:58:40;;;;;;;5.22;2.35;;;25.50;49.70;;;;;;1918073;75;21002;-60
2022/07/19 07:01:09;;;;;;;3.92;2.33;;;25.60;49.80;;;;;;1918066;75;20998;-60
2022/07/19 07:03:39;;;;;;;2.67;1.85;;;25.60;49.50;;;;;;1918155;75;21037;-60
2022/07/19 07:06:08;;;;;;;6.70;2.60;;;25.70;49.50;;;;;;1918145;75;21032;-59
2022/07/19 07:08:37;;;;;;;3.80;1.95;;;25.90;49.80;;;;;;1918149;73;21009;-60
2022/07/19 07:11:06;;;;;;;3.47;2.10;;;26.00;49.00;;;;;;1917997;73;21005;-60
2022/07/19 07:13:35;;;;;;;6.80;2.20;;;26.10;48.90;;;;;;1917950;75;21404;-60
2022/07/19 07:16:04;;;;;;;6.15;2.02;;;26.10;48.40;;;;;;1917960;73;21029;-60
2022/07/19 07:18:33;;;;;;;5.05;2.27;;;26.10;48.40;;;;;;1918087;75;21059;-59
2022/07/19 07:21:02;;;;;;;17.87;3.70;;;26.20;48.20;;;;;;1917967;73;20969;-60
2022/07/19 07:23:31;;;;;;;7.42;1.95;;;26.20;48.40;;;;;;1917832;74;21455;-60
2022/07/19 07:26:00;;;;;;;4.97;2.10;;;26.40;48.00;;;;;;1917941;74;20985;-60
2022/07/19 07:28:28;;;;;;;2.00;1.80;;;26.50;47.40;;;;;;1917994;73;21063;-60
2022/07/19 07:30:57;;;;;;;5.03;1.90;;;26.50;46.70;;;;;;1918044;73;21432;-60
2022/07/19 07:33:26;;;;;;;7.03;2.15;;;26.50;46.00;;;;;;1918180;73;21005;-60
2022/07/19 07:35:55;;;;;;;8.38;2.58;;;26.50;45.30;;;;;;1918032;73;21071;-60
2022/07/19 07:38:24;;;;;;;4.40;2.00;;;26.60;44.80;;;;;;1918290;73;21404;-60
2022/07/19 07:40:53;;;;;;;2.62;1.50;;;26.60;45.40;;;;;;1918120;73;21071;-60
2022/07/19 07:43:22;;;;;;;2.20;1.45;;;26.70;44.30;;;;;;1918057;74;21075;-60
2022/07/19 07:45:51;;;;;;;2.02;1.30;;;26.70;44.20;;;;;;1918046;73;21463;-60
2022/07/19 07:48:20;;;;;;;9.80;1.95;;;26.60;43.60;;;;;;1918098;75;21033;-60
2022/07/19 07:50:49;;;;;;;3.60;1.60;;;26.50;44.00;;;;;;1917995;75;21432;-60
2022/07/19 07:53:18;;;;;;;7.10;2.22;;;26.50;44.60;;;;;;1918074;73;20981;-60
2022/07/19 07:55:47;;;;;;;3.40;1.77;;;26.50;44.10;;;;;;1917951;73;21075;-60
2022/07/19 07:58:16;;;;;;;6.92;2.35;;;26.60;43.80;;;;;;1917954;75;21519;-60
2022/07/19 08:00:45;;;;;;;5.03;2.65;;;26.60;44.10;;;;;;1918042;75;20977;-60
2022/07/19 08:03:16;;;;;;;2.02;1.60;;;26.70;44.50;;;;;;1917844;73;21017;-60
2022/07/19 08:05:48;;;;;;;3.08;1.45;;;26.90;43.40;;;;;;1918059;74;20997;-60
2022/07/19 08:08:16;;;;;;;7.62;2.30;;;26.90;43.40;;;;;;1917705;75;21018;-60
2022/07/19 08:10:45;;;;;;;2.95;1.75;;;26.90;43.70;;;;;;1917984;75;21060;-60
2022/07/19 08:13:14;;;;;;;1.52;1.42;;;26.90;43.30;;;;;;1917983;75;21026;-60
2022/07/19 08:15:43;;;;;;;3.52;2.00;;;26.90;42.90;;;;;;1917892;74;21061;-60
2022/07/19 08:18:12;;;;;;;3.30;1.80;;;27.00;43.40;;;;;;1918152;75;20987;-60
2022/07/19 08:20:41;;;;;;;3.17;1.70;;;27.00;43.70;;;;;;1918129;75;21115;-60
2022/07/19 08:23:10;;;;;;;5.15;2.08;;;27.10;43.50;;;;;;1918045;75;21026;-60
2022/07/19 08:25:39;;;;;;;7.28;1.90;;;27.10;43.30;;;;;;1918241;75;21010;-60
2022/07/19 08:28:08;;;;;;;5.45;1.50;;;27.10;43.80;;;;;;1917933;75;21006;-60
2022/07/19 08:30:37;;;;;;;5.30;1.92;;;27.20;43.20;;;;;;1918006;75;20994;-59
2022/07/19 08:33:08;;;;;;;4.78;2.10;;;27.10;43.20;;;;;;1917995;75;21006;-60
2022/07/19 08:35:37;;;;;;;4.03;1.65;;;27.10;43.40;;;;;;1918005;75;21011;-60
2022/07/19 08:38:06;;;;;;;3.45;1.82;;;27.00;43.20;;;;;;1918009;75;21025;-60
2022/07/19 08:40:36;;;;;;;4.83;2.00;;;27.00;42.90;;;;;;1917928;75;21072;-60
2022/07/19 08:43:05;;;;;;;3.10;1.92;;;27.10;43.00;;;;;;1917879;75;21002;-61
2022/07/19 08:45:37;;;;;;;6.30;3.15;;;27.10;44.30;;;;;;1917149;75;20983;-64
2022/07/19 08:48:07;;;;;;;3.80;1.40;;;27.30;43.60;;;;;;1917786;75;21433;-62
2022/07/19 08:50:37;;;;;;;5.45;1.90;;;27.50;43.80;;;;;;1917804;74;21026;-63
2022/07/19 08:53:06;;;;;;;1.98;1.70;;;27.70;43.40;;;;;;1917637;75;21327;-62
2022/07/19 08:55:35;;;;;;;2.92;1.60;;;27.80;42.60;;;;;;1917771;75;21034;-61
2022/07/19 08:58:04;;;;;;;4.12;1.80;;;27.80;42.50;;;;;;1917754;75;21429;-63
2022/07/19 09:00:34;;;;;;;5.92;1.70;;;27.90;42.20;;;;;;1917683;75;21111;-62
2022/07/19 09:03:06;;;;;;;8.08;1.75;;;27.90;41.20;;;;;;1917806;75;21397;-63
2022/07/19 09:05:36;;;;;;;2.95;1.45;;;27.80;41.90;;;;;;1917867;75;21101;-63
2022/07/19 09:08:08;;;;;;;4.25;1.52;;;27.90;41.90;;;;;;1917624;73;21009;-64
2022/07/19 09:10:43;;;;;;;2.30;1.70;;;28.00;41.70;;;;;;1904607;74;21069;-62
2022/07/19 09:13:14;;;;;;;2.62;1.52;;;28.00;41.30;;;;;;1881216;75;21495;-64
2022/07/19 09:15:51;;;;;;;3.08;1.70;;;28.10;41.20;;;;;;1881059;76;21006;-63
2022/07/19 09:18:26;;;;;;;8.80;1.92;;;28.10;41.80;;;;;;1881221;75;21010;-63
2022/07/19 09:20:55;;;;;;;;;;;28.20;41.10;;;;;;1884054;76;21072;-63
2022/07/19 09:23:24;;;;;;;3.15;1.67;;;28.10;41.70;;;;;;1876972;74;20402;-64
2022/07/19 09:25:56;;;;;;;3.17;1.50;;;28.20;41.50;;;;;;1881131;75;21054;-63
2022/07/19 09:28:27;;;;;;;5.33;2.37;;;28.30;41.10;;;;;;1880500;76;21100;-68
2022/07/19 09:30:57;;;;;;;2.98;1.60;;;28.30;41.10;;;;;;1881260;75;21086;-63
2022/07/19 09:33:28;;;;;;;5.85;2.30;;;28.40;41.00;;;;;;1881245;76;21002;-66
2022/07/19 09:35:59;;;;;;;4.87;2.17;;;28.40;41.00;;;;;;1881163;76;20998;-65
2022/07/19 09:38:33;;;;;;;3.45;1.98;;;28.50;40.70;;;;;;1881281;76;21448;-63
2022/07/19 09:41:19;;;;;;;3.02;1.47;;;28.60;40.10;;;;;;1881294;76;21002;-64
2022/07/19 09:43:56;;;;;;;3.85;1.65;;;28.50;39.80;;;;;;1881041;76;21515;-63
2022/07/19 09:46:37;;;;;;;5.75;2.08;;;28.40;40.50;;;;;;1881193;74;21084;-62
2022/07/19 09:49:12;;;;;;;6.58;1.70;;;28.40;40.30;;;;;;1881214;76;21499;-64
2022/07/19 09:51:44;;;;;;;5.25;1.57;;;28.50;39.90;;;;;;1881227;76;21542;-67
2022/07/19 09:54:16;;;;;;;4.58;1.40;;;28.50;40.10;;;;;;1881214;75;21006;-71
2022/07/19 09:56:48;;;;;;;3.30;1.92;;;28.60;40.40;;;;;;1881180;74;21022;-69
2022/07/19 09:59:18;;;;;;;8.05;2.05;;;28.70;40.70;;;;;;1881162;76;21469;-65
2022/07/19 10:01:49;;;;;;;4.55;1.65;;;28.90;40.90;;;;;;1881183;74;21088;-67
2022/07/19 10:04:20;;;;;;;3.65;1.35;;;29.00;40.70;;;;;;1881074;76;21018;-61
2022/07/19 10:06:51;;;;;;;2.87;1.57;;;29.20;40.40;;;;;;1881206;76;21002;-61
2022/07/19 10:09:22;;;;;;;5.30;1.80;;;29.30;40.10;;;;;;1914784;75;21469;-64
2022/07/19 10:11:53;;;;;;;5.20;2.10;;;29.30;40.20;;;;;;1916611;75;21370;-60
2022/07/19 10:14:22;;;;;;;2.80;1.67;;;29.50;39.90;;;;;;1916394;75;21076;-60
2022/07/19 12:10:59;;;;;;;3.33;1.60;;;29.00;40.70;;;;;;1973009;73;25788;-59
2022/07/19 12:13:33;;;;;;;3.20;1.60;;;28.90;41.30;;;;;;1948516;73;21554;-61
2022/07/19 12:16:03;;;;;;;;;;;29.00;41.50;;;;;;1951375;73;21516;-59
2022/07/19 12:18:58;;;;;;;7.28;2.08;;;29.10;41.10;;;;;;1943634;73;20124;-60
2022/07/19 12:21:41;;;;;;;5.80;2.05;;;29.20;41.80;;;;;;1948678;73;21084;-58
2022/07/19 12:24:29;;;;;;;10.30;3.25;;;29.30;40.90;;;;;;1880055;76;21037;-58
2022/07/19 12:27:01;;;;;;;7.03;2.67;;;29.30;41.00;;;;;;1882339;76;21031;-58
2022/07/19 12:29:43;;;;;;;6.40;2.10;;;29.40;41.10;;;;;;1864339;76;21042;-61
2022/07/19 12:32:18;;;;;;;6.62;2.12;;;29.50;40.70;;;;;;1850506;77;21227;-58
2022/07/19 12:35:00;;;;;;;5.75;2.20;;;29.60;40.50;;;;;;1849340;77;21055;-60
2022/07/19 12:37:31;;;;;;;2.92;1.80;;;29.60;40.30;;;;;;1849569;77;21058;-59
2022/07/19 12:40:06;;;;;;;3.77;2.47;;;29.60;40.10;;;;;;1850368;77;21139;-60
2022/07/19 12:42:44;;;;;;;7.85;2.45;;;29.50;40.30;;;;;;1844301;77;21477;-58
2022/07/19 12:45:22;;;;;;;5.62;2.00;;;29.60;40.50;;;;;;1850419;77;21164;-58
2022/07/19 12:47:52;;;;;;;13.50;8.98;;;29.70;40.80;;;;;;1850749;77;21035;-59
2022/07/19 12:50:27;;;;;;;6.72;2.05;;;29.80;40.60;;;;;;1851256;77;21031;-58
2022/07/19 12:52:58;;;;;;;4.25;2.22;;;29.90;40.40;;;;;;1851236;77;21100;-58
2022/07/19 12:55:29;;;;;;;3.58;2.00;;;29.90;40.30;;;;;;1851144;77;21108;-58
2022/07/19 12:57:59;;;;;;;6.25;2.80;;;29.90;40.10;;;;;;1851358;77;21039;-58
2022/07/19 13:00:30;;;;;;;5.10;1.85;;;29.90;40.60;;;;;;1851107;76;21031;-58
2022/07/19 13:03:00;;;;;;;4.95;2.60;;;30.00;41.00;;;;;;1851150;76;21101;-58
2022/07/19 13:05:30;;;;;;;3.33;1.90;;;30.10;40.20;;;;;;1851143;77;21039;-59
2022/07/19 13:07:59;;;;;;;5.97;2.00;;;30.10;40.30;;;;;;1851306;77;21035;-58
2022/07/19 13:10:30;;;;;;;4.90;2.00;;;30.10;40.10;;;;;;1844537;77;21059;-58
2022/07/19 13:12:59;;;;;;;3.98;2.02;;;30.00;39.90;;;;;;1878028;75;21064;-57
2022/07/19 13:15:29;;;;;;;2.95;1.57;;;29.90;40.00;;;;;;1902753;75;21080;-58
2022/07/19 13:17:58;;;;;;;3.70;1.95;;;29.90;39.90;;;;;;1902706;75;21034;-57
2022/07/19 13:20:28;;;;;;;2.77;1.90;;;29.80;40.00;;;;;;1902652;75;21088;-57
2022/07/19 13:22:57;;;;;;;6.58;2.10;;;29.80;39.90;;;;;;1902127;74;20991;-57
2022/07/19 13:25:26;;;;;;;6.70;2.40;;;29.80;40.10;;;;;;1902092;75;21429;-57
2022/07/19 13:27:56;;;;;;;6.37;4.12;;;29.80;40.30;;;;;;1902191;75;20994;-57
2022/07/19 13:30:25;;;;;;;4.03;1.95;;;29.80;40.50;;;;;;1902172;75;21019;-56
2022/07/19 13:32:55;;;;;;;6.40;2.00;;;29.80;40.80;;;;;;1902155;75;21018;-56
2022/07/19 13:35:24;;;;;;;12.53;7.40;;;29.80;40.20;;;;;;1902155;75;21027;-56
2022/07/19 13:37:53;;;;;;;5.40;2.45;;;29.80;40.30;;;;;;1902082;75;21014;-56
2022/07/19 13:40:42;;;;;;;5.25;2.80;;;29.80;40.20;;;;;;1943580;72;21097;-57
2022/07/19 13:43:12;;;;;;;5.08;2.15;;;29.80;39.90;;;;;;1957942;73;21073;-57
2022/07/19 13:45:41;;;;;;;5.97;2.33;;;29.70;39.80;;;;;;1957904;73;21016;-58
2022/07/19 13:48:10;;;;;;;5.50;2.10;;;29.70;39.90;;;;;;1957939;73;21070;-58
2022/07/19 13:50:40;;;;;;;4.10;2.27;;;29.60;39.90;;;;;;1957939;73;21499;-58
2022/07/19 13:53:09;;;;;;;3.65;1.90;;;29.60;40.10;;;;;;1957883;73;21079;-57
2022/07/19 13:55:38;;;;;;;4.75;2.40;;;29.60;40.30;;;;;;1957936;73;21534;-56
2022/07/19 13:58:08;;;;;;;5.67;2.70;;;29.50;40.60;;;;;;1957931;73;21004;-56
2022/07/19 14:00:37;;;;;;;6.83;2.40;;;29.60;40.80;;;;;;1957770;73;21099;-56
2022/07/19 14:03:06;;;;;;;4.12;2.50;;;29.60;41.00;;;;;;1957888;73;21005;-56
2022/07/19 14:05:38;;;;;;;13.35;2.15;;;29.70;41.00;;;;;;1957865;73;21028;-56
2022/07/19 14:08:07;;;;;;;5.85;2.22;;;29.80;40.90;;;;;;1958219;73;21001;-57
2022/07/19 14:10:36;;;;;;;4.83;2.17;;;29.90;40.90;;;;;;1958015;73;21017;-57
2022/07/19 14:13:06;;;;;;;6.30;2.10;;;29.80;40.60;;;;;;1958040;73;21012;-57
2022/07/19 14:15:37;;;;;;;5.83;2.20;;;29.80;40.40;;;;;;1957854;73;20985;-57
2022/07/19 14:18:06;;;;;;;6.05;2.42;;;29.80;40.20;;;;;;1958011;73;21078;-57
2022/07/19 14:20:35;;;;;;;7.80;2.85;;;29.80;40.20;;;;;;1957989;73;21009;-57
2022/07/19 14:23:05;;;;;;;3.95;1.90;;;29.70;40.30;;;;;;1958016;73;21424;-57
2022/07/19 14:25:34;;;;;;;3.95;2.37;;;29.80;40.60;;;;;;1957983;73;21063;-57
2022/07/19 14:28:04;;;;;;;9.73;2.17;;;29.80;40.60;;;;;;1958010;73;21129;-56
2022/07/19 14:30:34;;;;;;;3.30;2.08;;;29.80;40.70;;;;;;1958181;73;20997;-56
2022/07/19 14:33:03;;;;;;;3.08;1.92;;;29.80;40.60;;;;;;1957962;73;21188;-56
2022/07/19 14:35:32;;;;;;;11.25;2.52;;;29.80;40.60;;;;;;1958011;73;20973;-56
2022/07/19 14:38:01;;;;;;;3.65;2.08;;;29.80;40.60;;;;;;1958058;73;21062;-56
2022/07/19 14:40:31;;;;;;;4.53;2.10;;;29.70;40.70;;;;;;1957830;73;21451;-56
2022/07/19 14:43:00;;;;;;;8.68;2.70;;;29.70;40.90;;;;;;1957947;73;21004;-56
2022/07/19 14:45:29;;;;;;;9.05;2.67;;;29.60;40.80;;;;;;1958065;73;21090;-56
2022/07/19 14:47:59;;;;;;;11.00;4.08;;;29.50;41.10;;;;;;1957982;73;21001;-56
2022/07/19 14:50:28;;;;;;;4.40;3.58;;;29.50;41.00;;;;;;1957714;73;21013;-57
2022/07/19 14:52:57;;;;;;;9.95;3.77;;;29.40;40.70;;;;;;1957774;73;21012;-56
2022/07/19 14:55:27;;;;;;;9.33;5.08;;;29.40;40.90;;;;;;1957812;73;21118;-56